sensor_id;sensor_type;location;lat;lon;timestamp;P1;durP1;ratioP1;P2;durP2;ratioP2
16689;SDS011;8458;52.220;9.884;2023-11-19T00:00:24;0.20;;;0.20;;
16689;SDS011;8458;52.220;9.884;2023-11-19T00:02:51;0.20;;;0.20;;
16689;SDS011;8458;52.220;9.884;2023-11-19T00:05:17;0.20;;;0.20;;
16689;SDS011;8458;52.220;9.884;2023-11-19T00:07:44;0.20;;;0.20;;
16689;SDS011;8458;52.220;9.884;2023-11-19T00:10:13;0.30;;;0.20;;
16689;SDS011;8458;52.220;9.884;2023-11-19T00:12:44;0.23;;;0.20;;
16689;SDS011;8458;52.220;9.884;2023-11-19T00:15:11;0.30;;;0.30;;
16689;SDS011;8458;52.220;9.884;2023-11-19T00:17:38;0.30;;;0.20;;
16689;SDS011;8458;52.220;9.884;2023-11-19T00:20:09;0.30;;;0.30;;
16689;SDS011;8458;52.220;9.884;2023-11-19T00:22:36;0.30;;;0.30;;
16689;SDS011;8458;52.220;9.884;2023-11-19T00:25:03;0.30;;;0.30;;
16689;SDS011;8458;52.220;9.884;2023-11-19T00:27:32;0.53;;;0.37;;
16689;SDS011;8458;52.220;9.884;2023-11-19T00:29:59;0.30;;;0.30;;
16689;SDS011;8458;52.220;9.884;2023-11-19T00:32:25;0.30;;;0.30;;
16689;SDS011;8458;52.220;9.884;2023-11-19T00:34:52;0.20;;;0.20;;
16689;SDS011;8458;52.220;9.884;2023-11-19T00:37:18;0.30;;;0.30;;
16689;SDS011;8458;52.220;9.884;2023-11-19T00:39:45;0.20;;;0.20;;
16689;SDS011;8458;52.220;9.884;2023-11-19T00:42:12;0.40;;;0.33;;
16689;SDS011;8458;52.220;9.884;2023-11-19T00:44:40;0.30;;;0.30;;
16689;SDS011;8458;52.220;9.884;2023-11-19T00:47:07;0.30;;;0.30;;
16689;SDS011;8458;52.220;9.884;2023-11-19T00:49:33;0.30;;;0.30;;
16689;SDS011;8458;52.220;9.884;2023-11-19T00:52:00;0.20;;;0.20;;
16689;SDS011;8458;52.220;9.884;2023-11-19T00:54:27;0.20;;;0.20;;
16689;SDS011;8458;52.220;9.884;2023-11-19T00:56:54;0.20;;;0.20;;
16689;SDS011;8458;52.220;9.884;2023-11-19T00:59:21;0.30;;;0.30;;
16689;SDS011;8458;52.220;9.884;2023-11-19T01:01:49;0.33;;;0.33;;
16689;SDS011;8458;52.220;9.884;2023-11-19T01:04:16;0.20;;;0.20;;
16689;SDS011;8458;52.220;9.884;2023-11-19T01:06:42;0.30;;;0.30;;
16689;SDS011;8458;52.220;9.884;2023-11-19T01:09:09;0.30;;;0.20;;
16689;SDS011;8458;52.220;9.884;2023-11-19T01:11:35;0.20;;;0.20;;
16689;SDS011;8458;52.220;9.884;2023-11-19T01:14:02;0.20;;;0.20;;
16689;SDS011;8458;52.220;9.884;2023-11-19T01:16:29;0.67;;;0.20;;
16689;SDS011;8458;52.220;9.884;2023-11-19T01:18:57;0.40;;;0.40;;
16689;SDS011;8458;52.220;9.884;2023-11-19T01:21:23;0.30;;;0.30;;
16689;SDS011;8458;52.220;9.884;2023-11-19T01:23:51;0.60;;;0.27;;
16689;SDS011;8458;52.220;9.884;2023-11-19T01:26:17;0.20;;;0.20;;
16689;SDS011;8458;52.220;9.884;2023-11-19T01:28:43;0.40;;;0.27;;
16689;SDS011;8458;52.220;9.884;2023-11-19T01:31:11;0.37;;;0.37;;
16689;SDS011;8458;52.220;9.884;2023-11-19T01:33:38;0.37;;;0.30;;
16689;SDS011;8458;52.220;9.884;2023-11-19T01:36:08;0.30;;;0.30;;
16689;SDS011;8458;52.220;9.884;2023-11-19T01:38:35;0.20;;;0.20;;
16689;SDS011;8458;52.220;9.884;2023-11-19T01:41:02;1.10;;;0.20;;
16689;SDS011;8458;52.220;9.884;2023-11-19T01:43:32;0.30;;;0.20;;
16689;SDS011;8458;52.220;9.884;2023-11-19T01:46:00;0.33;;;0.33;;
16689;SDS011;8458;52.220;9.884;2023-11-19T01:48:26;0.37;;;0.30;;
16689;SDS011;8458;52.220;9.884;2023-11-19T01:50:53;0.30;;;0.30;;
16689;SDS011;8458;52.220;9.884;2023-11-19T01:53:21;0.20;;;0.20;;
16689;SDS011;8458;52.220;9.884;2023-11-19T01:55:48;0.83;;;0.30;;
16689;SDS011;8458;52.220;9.884;2023-11-19T01:58:17;0.50;;;0.20;;
16689;SDS011;8458;52.220;9.884;2023-11-19T02:00:44;0.20;;;0.20;;
16689;SDS011;8458;52.220;9.884;2023-11-19T02:03:11;0.30;;;0.30;;
16689;SDS011;8458;52.220;9.884;2023-11-19T02:05:39;0.20;;;0.20;;
16689;SDS011;8458;52.220;9.884;2023-11-19T02:08:05;0.30;;;0.30;;
16689;SDS011;8458;52.220;9.884;2023-11-19T02:10:34;0.20;;;0.20;;
16689;SDS011;8458;52.220;9.884;2023-11-19T02:13:01;0.30;;;0.20;;
16689;SDS011;8458;52.220;9.884;2023-11-19T02:15:30;0.20;;;0.20;;
16689;SDS011;8458;52.220;9.884;2023-11-19T02:17:57;0.67;;;0.20;;
16689;SDS011;8458;52.220;9.884;2023-11-19T02:20:23;0.30;;;0.30;;
16689;SDS011;8458;52.220;9.884;2023-11-19T02:22:51;0.73;;;0.50;;
16689;SDS011;8458;52.220;9.884;2023-11-19T02:25:19;0.60;;;0.20;;
16689;SDS011;8458;52.220;9.884;2023-11-19T02:27:59;0.30;;;0.30;;
16689;SDS011;8458;52.220;9.884;2023-11-19T02:30:26;0.20;;;0.20;;
16689;SDS011;8458;52.220;9.884;2023-11-19T02:32:54;0.30;;;0.20;;
16689;SDS011;8458;52.220;9.884;2023-11-19T02:35:22;0.30;;;0.30;;
16689;SDS011;8458;52.220;9.884;2023-11-19T02:37:48;0.20;;;0.20;;
16689;SDS011;8458;52.220;9.884;2023-11-19T02:40:15;0.43;;;0.40;;
16689;SDS011;8458;52.220;9.884;2023-11-19T02:42:42;0.37;;;0.30;;
16689;SDS011;8458;52.220;9.884;2023-11-19T02:45:10;0.47;;;0.27;;
16689;SDS011;8458;52.220;9.884;2023-11-19T02:47:39;0.60;;;0.20;;
16689;SDS011;8458;52.220;9.884;2023-11-19T02:50:07;0.20;;;0.20;;
16689;SDS011;8458;52.220;9.884;2023-11-19T02:52:39;0.10;;;0.10;;
16689;SDS011;8458;52.220;9.884;2023-11-19T02:55:06;0.43;;;0.27;;
16689;SDS011;8458;52.220;9.884;2023-11-19T02:57:34;0.20;;;0.20;;
16689;SDS011;8458;52.220;9.884;2023-11-19T03:00:01;0.33;;;0.13;;
16689;SDS011;8458;52.220;9.884;2023-11-19T03:02:38;0.33;;;0.20;;
16689;SDS011;8458;52.220;9.884;2023-11-19T03:05:09;0.20;;;0.20;;
16689;SDS011;8458;52.220;9.884;2023-11-19T03:07:36;0.47;;;0.20;;
16689;SDS011;8458;52.220;9.884;2023-11-19T03:10:03;0.23;;;0.23;;
16689;SDS011;8458;52.220;9.884;2023-11-19T03:12:30;1.07;;;0.23;;
16689;SDS011;8458;52.220;9.884;2023-11-19T03:14:58;0.37;;;0.30;;
16689;SDS011;8458;52.220;9.884;2023-11-19T03:17:24;0.20;;;0.20;;
16689;SDS011;8458;52.220;9.884;2023-11-19T03:19:53;0.20;;;0.20;;
16689;SDS011;8458;52.220;9.884;2023-11-19T03:22:19;0.20;;;0.20;;
16689;SDS011;8458;52.220;9.884;2023-11-19T03:24:46;0.20;;;0.20;;
16689;SDS011;8458;52.220;9.884;2023-11-19T03:27:12;0.80;;;0.23;;
16689;SDS011;8458;52.220;9.884;2023-11-19T03:29:38;0.20;;;0.20;;
16689;SDS011;8458;52.220;9.884;2023-11-19T03:32:05;0.37;;;0.20;;
16689;SDS011;8458;52.220;9.884;2023-11-19T03:34:32;0.20;;;0.20;;
16689;SDS011;8458;52.220;9.884;2023-11-19T03:36:59;0.20;;;0.20;;
16689;SDS011;8458;52.220;9.884;2023-11-19T03:39:26;0.27;;;0.27;;
16689;SDS011;8458;52.220;9.884;2023-11-19T03:41:52;0.20;;;0.20;;
16689;SDS011;8458;52.220;9.884;2023-11-19T03:44:19;0.10;;;0.10;;
16689;SDS011;8458;52.220;9.884;2023-11-19T03:46:46;0.27;;;0.27;;
16689;SDS011;8458;52.220;9.884;2023-11-19T03:49:13;0.30;;;0.30;;
16689;SDS011;8458;52.220;9.884;2023-11-19T03:51:39;0.20;;;0.20;;
16689;SDS011;8458;52.220;9.884;2023-11-19T03:54:07;0.30;;;0.30;;
16689;SDS011;8458;52.220;9.884;2023-11-19T03:56:33;0.20;;;0.20;;
16689;SDS011;8458;52.220;9.884;2023-11-19T03:59:00;0.30;;;0.30;;
16689;SDS011;8458;52.220;9.884;2023-11-19T04:01:27;0.30;;;0.30;;
16689;SDS011;8458;52.220;9.884;2023-11-19T04:03:53;0.30;;;0.30;;
16689;SDS011;8458;52.220;9.884;2023-11-19T04:06:21;0.30;;;0.30;;
16689;SDS011;8458;52.220;9.884;2023-11-19T04:08:47;0.37;;;0.37;;
16689;SDS011;8458;52.220;9.884;2023-11-19T04:11:16;1.17;;;0.40;;
16689;SDS011;8458;52.220;9.884;2023-11-19T04:13:42;0.50;;;0.40;;
16689;SDS011;8458;52.220;9.884;2023-11-19T04:16:09;0.60;;;0.60;;
16689;SDS011;8458;52.220;9.884;2023-11-19T04:18:35;0.77;;;0.50;;
16689;SDS011;8458;52.220;9.884;2023-11-19T04:21:02;0.70;;;0.40;;
16689;SDS011;8458;52.220;9.884;2023-11-19T04:23:32;0.50;;;0.43;;
16689;SDS011;8458;52.220;9.884;2023-11-19T04:26:01;0.67;;;0.60;;
16689;SDS011;8458;52.220;9.884;2023-11-19T04:28:30;0.77;;;0.70;;
16689;SDS011;8458;52.220;9.884;2023-11-19T04:30:56;0.80;;;0.60;;
16689;SDS011;8458;52.220;9.884;2023-11-19T04:33:23;1.20;;;0.60;;
16689;SDS011;8458;52.220;9.884;2023-11-19T04:35:50;0.70;;;0.70;;
16689;SDS011;8458;52.220;9.884;2023-11-19T04:38:16;1.07;;;0.73;;
16689;SDS011;8458;52.220;9.884;2023-11-19T04:40:43;1.00;;;0.70;;
16689;SDS011;8458;52.220;9.884;2023-11-19T04:43:09;1.30;;;0.97;;
16689;SDS011;8458;52.220;9.884;2023-11-19T04:45:37;0.97;;;0.87;;
16689;SDS011;8458;52.220;9.884;2023-11-19T04:48:04;1.00;;;1.00;;
16689;SDS011;8458;52.220;9.884;2023-11-19T04:50:31;1.40;;;1.13;;
16689;SDS011;8458;52.220;9.884;2023-11-19T04:52:57;1.50;;;1.40;;
16689;SDS011;8458;52.220;9.884;2023-11-19T04:55:24;2.20;;;1.37;;
16689;SDS011;8458;52.220;9.884;2023-11-19T04:57:53;2.17;;;1.97;;
16689;SDS011;8458;52.220;9.884;2023-11-19T05:00:20;1.53;;;1.43;;
16689;SDS011;8458;52.220;9.884;2023-11-19T05:02:48;1.27;;;1.27;;
16689;SDS011;8458;52.220;9.884;2023-11-19T05:05:15;1.60;;;1.50;;
16689;SDS011;8458;52.220;9.884;2023-11-19T05:07:42;2.43;;;1.50;;
16689;SDS011;8458;52.220;9.884;2023-11-19T05:10:09;1.80;;;1.40;;
16689;SDS011;8458;52.220;9.884;2023-11-19T05:12:35;2.83;;;1.30;;
16689;SDS011;8458;52.220;9.884;2023-11-19T05:15:02;2.10;;;1.30;;
16689;SDS011;8458;52.220;9.884;2023-11-19T05:17:29;1.53;;;1.40;;
16689;SDS011;8458;52.220;9.884;2023-11-19T05:19:56;1.40;;;1.40;;
16689;SDS011;8458;52.220;9.884;2023-11-19T05:22:22;1.63;;;1.50;;
16689;SDS011;8458;52.220;9.884;2023-11-19T05:24:49;1.73;;;1.43;;
16689;SDS011;8458;52.220;9.884;2023-11-19T05:27:15;1.50;;;1.40;;
16689;SDS011;8458;52.220;9.884;2023-11-19T05:29:42;1.50;;;1.40;;
16689;SDS011;8458;52.220;9.884;2023-11-19T05:32:08;1.73;;;1.63;;
16689;SDS011;8458;52.220;9.884;2023-11-19T05:34:35;1.93;;;1.30;;
16689;SDS011;8458;52.220;9.884;2023-11-19T05:37:03;2.03;;;1.30;;
16689;SDS011;8458;52.220;9.884;2023-11-19T05:39:30;1.60;;;1.50;;
16689;SDS011;8458;52.220;9.884;2023-11-19T05:41:57;1.73;;;1.63;;
16689;SDS011;8458;52.220;9.884;2023-11-19T05:44:24;1.80;;;1.40;;
16689;SDS011;8458;52.220;9.884;2023-11-19T05:46:50;1.83;;;1.57;;
16689;SDS011;8458;52.220;9.884;2023-11-19T05:49:17;1.50;;;1.23;;
16689;SDS011;8458;52.220;9.884;2023-11-19T05:51:43;2.17;;;1.50;;
16689;SDS011;8458;52.220;9.884;2023-11-19T05:54:12;1.83;;;1.67;;
16689;SDS011;8458;52.220;9.884;2023-11-19T05:56:39;3.27;;;1.70;;
16689;SDS011;8458;52.220;9.884;2023-11-19T05:59:05;1.67;;;1.50;;
16689;SDS011;8458;52.220;9.884;2023-11-19T06:01:39;1.80;;;1.60;;
16689;SDS011;8458;52.220;9.884;2023-11-19T06:04:06;3.27;;;2.00;;
16689;SDS011;8458;52.220;9.884;2023-11-19T06:06:33;2.70;;;1.80;;
16689;SDS011;8458;52.220;9.884;2023-11-19T06:09:00;2.83;;;2.17;;
16689;SDS011;8458;52.220;9.884;2023-11-19T06:11:32;4.37;;;1.93;;
16689;SDS011;8458;52.220;9.884;2023-11-19T06:14:00;4.00;;;2.30;;
16689;SDS011;8458;52.220;9.884;2023-11-19T06:16:27;3.63;;;2.30;;
16689;SDS011;8458;52.220;9.884;2023-11-19T06:18:54;2.63;;;2.33;;
16689;SDS011;8458;52.220;9.884;2023-11-19T06:21:20;4.97;;;3.03;;
16689;SDS011;8458;52.220;9.884;2023-11-19T06:23:47;4.73;;;3.33;;
16689;SDS011;8458;52.220;9.884;2023-11-19T06:26:14;4.47;;;3.50;;
16689;SDS011;8458;52.220;9.884;2023-11-19T06:28:41;7.33;;;4.00;;
16689;SDS011;8458;52.220;9.884;2023-11-19T06:31:08;5.73;;;3.80;;
16689;SDS011;8458;52.220;9.884;2023-11-19T06:33:34;5.93;;;3.53;;
16689;SDS011;8458;52.220;9.884;2023-11-19T06:36:01;6.57;;;3.23;;
16689;SDS011;8458;52.220;9.884;2023-11-19T06:38:27;7.57;;;3.93;;
16689;SDS011;8458;52.220;9.884;2023-11-19T06:40:54;10.27;;;3.07;;
16689;SDS011;8458;52.220;9.884;2023-11-19T06:43:20;5.97;;;3.07;;
16689;SDS011;8458;52.220;9.884;2023-11-19T06:45:48;5.70;;;3.13;;
16689;SDS011;8458;52.220;9.884;2023-11-19T06:48:15;6.97;;;3.00;;
16689;SDS011;8458;52.220;9.884;2023-11-19T06:50:41;6.33;;;3.20;;
16689;SDS011;8458;52.220;9.884;2023-11-19T06:53:08;7.83;;;3.10;;
16689;SDS011;8458;52.220;9.884;2023-11-19T06:55:35;6.20;;;2.47;;
16689;SDS011;8458;52.220;9.884;2023-11-19T06:58:02;9.50;;;3.70;;
16689;SDS011;8458;52.220;9.884;2023-11-19T07:00:28;9.17;;;3.07;;
16689;SDS011;8458;52.220;9.884;2023-11-19T07:02:58;6.37;;;2.80;;
16689;SDS011;8458;52.220;9.884;2023-11-19T07:05:25;10.90;;;3.37;;
16689;SDS011;8458;52.220;9.884;2023-11-19T07:07:52;7.17;;;3.30;;
16689;SDS011;8458;52.220;9.884;2023-11-19T07:10:19;7.90;;;2.77;;
16689;SDS011;8458;52.220;9.884;2023-11-19T07:12:46;7.90;;;2.70;;
16689;SDS011;8458;52.220;9.884;2023-11-19T07:15:14;12.87;;;2.43;;
16689;SDS011;8458;52.220;9.884;2023-11-19T07:17:42;8.87;;;2.87;;
16689;SDS011;8458;52.220;9.884;2023-11-19T07:20:11;6.87;;;2.57;;
16689;SDS011;8458;52.220;9.884;2023-11-19T07:22:41;8.00;;;3.23;;
16689;SDS011;8458;52.220;9.884;2023-11-19T07:25:10;7.50;;;3.30;;
16689;SDS011;8458;52.220;9.884;2023-11-19T07:27:37;6.13;;;2.70;;
16689;SDS011;8458;52.220;9.884;2023-11-19T07:30:04;6.23;;;2.63;;
16689;SDS011;8458;52.220;9.884;2023-11-19T07:32:32;6.50;;;2.97;;
16689;SDS011;8458;52.220;9.884;2023-11-19T07:34:58;7.87;;;2.60;;
16689;SDS011;8458;52.220;9.884;2023-11-19T07:37:26;7.50;;;2.83;;
16689;SDS011;8458;52.220;9.884;2023-11-19T07:39:53;6.03;;;2.57;;
16689;SDS011;8458;52.220;9.884;2023-11-19T07:42:19;10.20;;;2.93;;
16689;SDS011;8458;52.220;9.884;2023-11-19T07:44:46;9.33;;;3.47;;
16689;SDS011;8458;52.220;9.884;2023-11-19T07:47:12;10.17;;;2.60;;
16689;SDS011;8458;52.220;9.884;2023-11-19T07:49:39;9.63;;;3.73;;
16689;SDS011;8458;52.220;9.884;2023-11-19T07:52:05;10.33;;;3.07;;
16689;SDS011;8458;52.220;9.884;2023-11-19T07:54:33;10.27;;;3.20;;
16689;SDS011;8458;52.220;9.884;2023-11-19T07:56:59;8.30;;;3.40;;
16689;SDS011;8458;52.220;9.884;2023-11-19T07:59:26;10.40;;;2.97;;
16689;SDS011;8458;52.220;9.884;2023-11-19T08:01:52;9.33;;;2.80;;
16689;SDS011;8458;52.220;9.884;2023-11-19T08:04:19;7.33;;;2.77;;
16689;SDS011;8458;52.220;9.884;2023-11-19T08:06:45;9.07;;;2.97;;
16689;SDS011;8458;52.220;9.884;2023-11-19T08:09:12;10.40;;;3.20;;
16689;SDS011;8458;52.220;9.884;2023-11-19T08:11:41;11.43;;;4.10;;
16689;SDS011;8458;52.220;9.884;2023-11-19T08:14:08;7.90;;;3.07;;
16689;SDS011;8458;52.220;9.884;2023-11-19T08:16:34;12.07;;;3.20;;
16689;SDS011;8458;52.220;9.884;2023-11-19T08:19:02;8.73;;;3.47;;
16689;SDS011;8458;52.220;9.884;2023-11-19T08:21:29;14.80;;;3.00;;
16689;SDS011;8458;52.220;9.884;2023-11-19T08:23:55;9.87;;;3.17;;
16689;SDS011;8458;52.220;9.884;2023-11-19T08:26:22;12.83;;;4.63;;
16689;SDS011;8458;52.220;9.884;2023-11-19T08:28:50;12.70;;;3.23;;
16689;SDS011;8458;52.220;9.884;2023-11-19T08:31:17;9.57;;;3.50;;
16689;SDS011;8458;52.220;9.884;2023-11-19T08:33:43;9.60;;;3.53;;
16689;SDS011;8458;52.220;9.884;2023-11-19T08:36:14;10.83;;;4.03;;
16689;SDS011;8458;52.220;9.884;2023-11-19T08:38:41;8.60;;;3.60;;
16689;SDS011;8458;52.220;9.884;2023-11-19T08:41:08;9.90;;;3.40;;
16689;SDS011;8458;52.220;9.884;2023-11-19T08:43:35;10.30;;;3.80;;
16689;SDS011;8458;52.220;9.884;2023-11-19T08:46:03;7.87;;;3.40;;
16689;SDS011;8458;52.220;9.884;2023-11-19T08:48:30;11.90;;;3.97;;
16689;SDS011;8458;52.220;9.884;2023-11-19T08:50:56;11.03;;;4.17;;
16689;SDS011;8458;52.220;9.884;2023-11-19T08:53:22;10.17;;;3.87;;
16689;SDS011;8458;52.220;9.884;2023-11-19T08:55:49;11.00;;;3.27;;
16689;SDS011;8458;52.220;9.884;2023-11-19T08:58:15;14.60;;;3.77;;
16689;SDS011;8458;52.220;9.884;2023-11-19T09:00:43;13.23;;;3.80;;
16689;SDS011;8458;52.220;9.884;2023-11-19T09:03:10;16.47;;;3.50;;
16689;SDS011;8458;52.220;9.884;2023-11-19T09:05:37;8.47;;;3.37;;
16689;SDS011;8458;52.220;9.884;2023-11-19T09:08:03;14.00;;;3.73;;
16689;SDS011;8458;52.220;9.884;2023-11-19T09:10:30;10.53;;;3.37;;
16689;SDS011;8458;52.220;9.884;2023-11-19T09:12:57;10.37;;;3.17;;
16689;SDS011;8458;52.220;9.884;2023-11-19T09:15:24;11.07;;;3.20;;
16689;SDS011;8458;52.220;9.884;2023-11-19T09:17:50;12.77;;;3.87;;
16689;SDS011;8458;52.220;9.884;2023-11-19T09:20:18;8.47;;;3.30;;
16689;SDS011;8458;52.220;9.884;2023-11-19T09:22:45;11.47;;;4.10;;
16689;SDS011;8458;52.220;9.884;2023-11-19T09:25:11;16.83;;;3.77;;
16689;SDS011;8458;52.220;9.884;2023-11-19T09:27:41;18.43;;;5.10;;
16689;SDS011;8458;52.220;9.884;2023-11-19T09:30:08;12.27;;;4.33;;
16689;SDS011;8458;52.220;9.884;2023-11-19T09:32:35;14.93;;;3.87;;
16689;SDS011;8458;52.220;9.884;2023-11-19T09:35:02;18.27;;;4.53;;
16689;SDS011;8458;52.220;9.884;2023-11-19T09:37:31;12.20;;;3.47;;
16689;SDS011;8458;52.220;9.884;2023-11-19T09:39:57;13.60;;;4.27;;
16689;SDS011;8458;52.220;9.884;2023-11-19T09:42:24;11.10;;;3.43;;
16689;SDS011;8458;52.220;9.884;2023-11-19T09:44:51;16.30;;;4.40;;
16689;SDS011;8458;52.220;9.884;2023-11-19T09:47:19;12.70;;;4.03;;
16689;SDS011;8458;52.220;9.884;2023-11-19T09:49:46;10.97;;;4.17;;
16689;SDS011;8458;52.220;9.884;2023-11-19T09:52:12;14.00;;;4.73;;
16689;SDS011;8458;52.220;9.884;2023-11-19T09:54:41;13.03;;;3.47;;
16689;SDS011;8458;52.220;9.884;2023-11-19T09:57:08;15.10;;;3.67;;
16689;SDS011;8458;52.220;9.884;2023-11-19T09:59:36;14.87;;;4.67;;
16689;SDS011;8458;52.220;9.884;2023-11-19T10:02:04;10.63;;;4.27;;
16689;SDS011;8458;52.220;9.884;2023-11-19T10:04:32;15.70;;;3.80;;
16689;SDS011;8458;52.220;9.884;2023-11-19T10:07:01;8.20;;;3.37;;
16689;SDS011;8458;52.220;9.884;2023-11-19T10:09:28;13.47;;;4.03;;
16689;SDS011;8458;52.220;9.884;2023-11-19T10:11:56;10.60;;;3.33;;
16689;SDS011;8458;52.220;9.884;2023-11-19T10:14:23;9.43;;;3.80;;
16689;SDS011;8458;52.220;9.884;2023-11-19T10:16:49;9.43;;;3.83;;
16689;SDS011;8458;52.220;9.884;2023-11-19T10:19:18;14.53;;;3.63;;
16689;SDS011;8458;52.220;9.884;2023-11-19T10:21:45;11.63;;;3.47;;
16689;SDS011;8458;52.220;9.884;2023-11-19T10:24:12;9.77;;;3.20;;
16689;SDS011;8458;52.220;9.884;2023-11-19T10:26:38;9.63;;;3.17;;
16689;SDS011;8458;52.220;9.884;2023-11-19T10:29:08;9.33;;;3.80;;
16689;SDS011;8458;52.220;9.884;2023-11-19T10:31:38;10.10;;;3.30;;
16689;SDS011;8458;52.220;9.884;2023-11-19T10:34:05;8.63;;;2.83;;
16689;SDS011;8458;52.220;9.884;2023-11-19T10:36:50;9.13;;;3.67;;
16689;SDS011;8458;52.220;9.884;2023-11-19T10:39:17;9.30;;;2.90;;
16689;SDS011;8458;52.220;9.884;2023-11-19T10:41:44;10.70;;;3.03;;
16689;SDS011;8458;52.220;9.884;2023-11-19T10:44:12;7.67;;;2.60;;
16689;SDS011;8458;52.220;9.884;2023-11-19T10:46:38;11.73;;;2.97;;
16689;SDS011;8458;52.220;9.884;2023-11-19T10:49:06;6.40;;;2.47;;
16689;SDS011;8458;52.220;9.884;2023-11-19T10:51:33;10.17;;;2.87;;
16689;SDS011;8458;52.220;9.884;2023-11-19T10:54:01;8.50;;;2.90;;
16689;SDS011;8458;52.220;9.884;2023-11-19T10:56:30;8.10;;;3.20;;
16689;SDS011;8458;52.220;9.884;2023-11-19T10:58:58;9.40;;;3.27;;
16689;SDS011;8458;52.220;9.884;2023-11-19T11:01:27;8.47;;;3.93;;
16689;SDS011;8458;52.220;9.884;2023-11-19T11:04:00;7.50;;;2.97;;
16689;SDS011;8458;52.220;9.884;2023-11-19T11:06:28;7.83;;;3.17;;
16689;SDS011;8458;52.220;9.884;2023-11-19T11:08:56;8.80;;;3.23;;
16689;SDS011;8458;52.220;9.884;2023-11-19T11:11:24;12.27;;;3.47;;
16689;SDS011;8458;52.220;9.884;2023-11-19T11:13:51;13.33;;;3.30;;
16689;SDS011;8458;52.220;9.884;2023-11-19T11:16:20;16.40;;;3.67;;
16689;SDS011;8458;52.220;9.884;2023-11-19T11:18:51;11.30;;;3.63;;
16689;SDS011;8458;52.220;9.884;2023-11-19T11:21:20;8.50;;;3.30;;
16689;SDS011;8458;52.220;9.884;2023-11-19T11:23:56;13.53;;;3.70;;
16689;SDS011;8458;52.220;9.884;2023-11-19T11:26:53;10.77;;;3.60;;
16689;SDS011;8458;52.220;9.884;2023-11-19T11:29:35;14.07;;;3.43;;
16689;SDS011;8458;52.220;9.884;2023-11-19T11:32:08;10.23;;;3.63;;
16689;SDS011;8458;52.220;9.884;2023-11-19T11:34:52;13.50;;;3.47;;
16689;SDS011;8458;52.220;9.884;2023-11-19T11:37:31;12.10;;;3.97;;
16689;SDS011;8458;52.220;9.884;2023-11-19T11:40:00;13.97;;;4.03;;
16689;SDS011;8458;52.220;9.884;2023-11-19T11:42:30;10.83;;;3.73;;
16689;SDS011;8458;52.220;9.884;2023-11-19T11:45:00;13.63;;;3.47;;
16689;SDS011;8458;52.220;9.884;2023-11-19T11:50:49;16.63;;;3.87;;
16689;SDS011;8458;52.220;9.884;2023-11-19T11:53:17;9.80;;;3.83;;
16689;SDS011;8458;52.220;9.884;2023-11-19T11:55:57;11.00;;;3.80;;
16689;SDS011;8458;52.220;9.884;2023-11-19T11:58:25;12.33;;;3.57;;
16689;SDS011;8458;52.220;9.884;2023-11-19T12:00:53;18.20;;;4.03;;
16689;SDS011;8458;52.220;9.884;2023-11-19T12:03:20;12.43;;;4.13;;
16689;SDS011;8458;52.220;9.884;2023-11-19T12:05:49;13.30;;;4.77;;
16689;SDS011;8458;52.220;9.884;2023-11-19T12:08:18;12.97;;;3.97;;
16689;SDS011;8458;52.220;9.884;2023-11-19T12:10:46;12.17;;;4.10;;
16689;SDS011;8458;52.220;9.884;2023-11-19T12:13:14;13.43;;;3.70;;
16689;SDS011;8458;52.220;9.884;2023-11-19T12:18:35;12.47;;;3.87;;
16689;SDS011;8458;52.220;9.884;2023-11-19T12:21:06;10.10;;;3.80;;
16689;SDS011;8458;52.220;9.884;2023-11-19T12:23:34;13.53;;;4.10;;
16689;SDS011;8458;52.220;9.884;2023-11-19T12:26:01;14.87;;;4.20;;
16689;SDS011;8458;52.220;9.884;2023-11-19T12:28:28;15.23;;;4.03;;
16689;SDS011;8458;52.220;9.884;2023-11-19T12:31:06;9.80;;;3.87;;
16689;SDS011;8458;52.220;9.884;2023-11-19T12:33:35;11.57;;;3.57;;
16689;SDS011;8458;52.220;9.884;2023-11-19T12:36:03;15.43;;;4.30;;
16689;SDS011;8458;52.220;9.884;2023-11-19T12:38:32;10.73;;;3.87;;
16689;SDS011;8458;52.220;9.884;2023-11-19T12:41:05;17.10;;;4.03;;
16689;SDS011;8458;52.220;9.884;2023-11-19T12:43:31;12.20;;;3.67;;
16689;SDS011;8458;52.220;9.884;2023-11-19T12:45:59;14.07;;;3.83;;
16689;SDS011;8458;52.220;9.884;2023-11-19T12:48:25;14.07;;;4.23;;
16689;SDS011;8458;52.220;9.884;2023-11-19T12:50:52;14.60;;;3.87;;
16689;SDS011;8458;52.220;9.884;2023-11-19T12:53:20;10.23;;;4.53;;
16689;SDS011;8458;52.220;9.884;2023-11-19T12:55:48;12.20;;;3.83;;
16689;SDS011;8458;52.220;9.884;2023-11-19T12:58:30;9.77;;;3.63;;
16689;SDS011;8458;52.220;9.884;2023-11-19T13:01:01;9.87;;;3.77;;
16689;SDS011;8458;52.220;9.884;2023-11-19T13:03:29;12.60;;;3.80;;
16689;SDS011;8458;52.220;9.884;2023-11-19T13:06:01;13.93;;;4.53;;
16689;SDS011;8458;52.220;9.884;2023-11-19T13:08:28;10.63;;;3.40;;
16689;SDS011;8458;52.220;9.884;2023-11-19T13:11:03;11.20;;;3.40;;
16689;SDS011;8458;52.220;9.884;2023-11-19T13:13:31;8.17;;;3.90;;
16689;SDS011;8458;52.220;9.884;2023-11-19T13:16:01;11.73;;;4.17;;
16689;SDS011;8458;52.220;9.884;2023-11-19T13:18:30;11.13;;;5.20;;
16689;SDS011;8458;52.220;9.884;2023-11-19T13:20:57;12.63;;;4.40;;
16689;SDS011;8458;52.220;9.884;2023-11-19T13:23:23;12.70;;;3.50;;
16689;SDS011;8458;52.220;9.884;2023-11-19T13:25:50;10.67;;;3.83;;
16689;SDS011;8458;52.220;9.884;2023-11-19T13:28:17;13.73;;;3.83;;
16689;SDS011;8458;52.220;9.884;2023-11-19T13:30:44;9.63;;;3.70;;
16689;SDS011;8458;52.220;9.884;2023-11-19T13:33:10;12.80;;;4.20;;
16689;SDS011;8458;52.220;9.884;2023-11-19T13:35:38;9.93;;;3.90;;
16689;SDS011;8458;52.220;9.884;2023-11-19T13:38:05;9.27;;;2.73;;
16689;SDS011;8458;52.220;9.884;2023-11-19T13:40:33;9.70;;;3.67;;
16689;SDS011;8458;52.220;9.884;2023-11-19T13:43:00;9.17;;;3.53;;
16689;SDS011;8458;52.220;9.884;2023-11-19T13:45:28;9.33;;;3.20;;
16689;SDS011;8458;52.220;9.884;2023-11-19T13:47:54;10.57;;;3.80;;
16689;SDS011;8458;52.220;9.884;2023-11-19T13:50:20;15.33;;;3.87;;
16689;SDS011;8458;52.220;9.884;2023-11-19T13:52:48;11.17;;;3.70;;
16689;SDS011;8458;52.220;9.884;2023-11-19T13:55:14;11.33;;;3.67;;
16689;SDS011;8458;52.220;9.884;2023-11-19T13:57:41;10.23;;;3.80;;
16689;SDS011;8458;52.220;9.884;2023-11-19T14:00:09;12.87;;;3.60;;
16689;SDS011;8458;52.220;9.884;2023-11-19T14:02:39;15.10;;;4.77;;
16689;SDS011;8458;52.220;9.884;2023-11-19T14:05:06;10.67;;;4.30;;
16689;SDS011;8458;52.220;9.884;2023-11-19T14:07:32;10.77;;;3.87;;
16689;SDS011;8458;52.220;9.884;2023-11-19T14:09:59;19.03;;;4.20;;
16689;SDS011;8458;52.220;9.884;2023-11-19T14:12:27;12.60;;;4.03;;
16689;SDS011;8458;52.220;9.884;2023-11-19T14:14:53;15.27;;;3.80;;
16689;SDS011;8458;52.220;9.884;2023-11-19T14:17:20;12.10;;;4.17;;
16689;SDS011;8458;52.220;9.884;2023-11-19T14:19:48;11.43;;;4.43;;
16689;SDS011;8458;52.220;9.884;2023-11-19T14:22:14;9.93;;;3.80;;
16689;SDS011;8458;52.220;9.884;2023-11-19T14:24:41;14.73;;;3.93;;
16689;SDS011;8458;52.220;9.884;2023-11-19T14:27:08;9.53;;;4.23;;
16689;SDS011;8458;52.220;9.884;2023-11-19T14:29:34;10.67;;;3.13;;
16689;SDS011;8458;52.220;9.884;2023-11-19T14:32:01;11.27;;;4.00;;
16689;SDS011;8458;52.220;9.884;2023-11-19T14:34:28;10.13;;;3.30;;
16689;SDS011;8458;52.220;9.884;2023-11-19T14:36:56;10.03;;;3.80;;
16689;SDS011;8458;52.220;9.884;2023-11-19T14:39:23;10.70;;;3.83;;
16689;SDS011;8458;52.220;9.884;2023-11-19T14:41:49;12.20;;;3.33;;
16689;SDS011;8458;52.220;9.884;2023-11-19T14:44:17;8.13;;;3.10;;
16689;SDS011;8458;52.220;9.884;2023-11-19T14:46:44;9.53;;;3.40;;
16689;SDS011;8458;52.220;9.884;2023-11-19T14:49:11;9.90;;;3.40;;
16689;SDS011;8458;52.220;9.884;2023-11-19T14:51:39;10.93;;;4.00;;
16689;SDS011;8458;52.220;9.884;2023-11-19T14:54:07;13.27;;;4.23;;
16689;SDS011;8458;52.220;9.884;2023-11-19T14:56:33;11.70;;;3.73;;
16689;SDS011;8458;52.220;9.884;2023-11-19T14:59:00;9.90;;;3.57;;
16689;SDS011;8458;52.220;9.884;2023-11-19T15:01:26;10.83;;;3.63;;
16689;SDS011;8458;52.220;9.884;2023-11-19T15:03:53;15.30;;;3.70;;